createdAt,value
2022-08-25T00:00:30.971Z,1017.06
2022-08-25T00:01:30.993Z,1017.05
2022-08-25T00:02:31.010Z,1017.00
2022-08-25T00:03:35.967Z,1017.03
2022-08-25T00:04:30.979Z,1017.05
2022-08-25T00:05:33.373Z,1017.06
2022-08-25T00:06:30.984Z,1017.02
2022-08-25T00:07:30.987Z,1017.05
2022-08-25T00:08:30.990Z,1017.04
2022-08-25T00:09:30.992Z,1017.01
2022-08-25T00:10:30.991Z,1017.03
2022-08-25T00:11:30.996Z,1017.01
2022-08-25T00:12:30.997Z,1017.02
2022-08-25T00:13:31.001Z,1016.99
2022-08-25T00:14:31.003Z,1016.92
2022-08-25T00:15:31.069Z,1016.94
2022-08-25T00:16:31.003Z,1016.95
2022-08-25T00:17:31.011Z,1016.97
2022-08-25T00:18:31.008Z,1016.97
2022-08-25T00:19:31.013Z,1016.95
2022-08-25T00:20:31.014Z,1016.96
2022-08-25T00:21:31.018Z,1016.93
2022-08-25T00:22:31.023Z,1016.91
2022-08-25T00:23:31.026Z,1016.92
2022-08-25T00:24:31.029Z,1016.91
2022-08-25T00:25:31.035Z,1016.86
2022-08-25T00:26:31.026Z,1016.84
2022-08-25T00:27:31.034Z,1016.82
2022-08-25T00:28:31.040Z,1016.84
2022-08-25T00:29:31.042Z,1016.82
2022-08-25T00:30:31.038Z,1016.81
2022-08-25T00:31:38.352Z,1016.82
2022-08-25T00:32:31.043Z,1016.83
2022-08-25T00:33:31.047Z,1016.80
2022-08-25T00:34:31.049Z,1016.80
2022-08-25T00:35:31.054Z,1016.78
2022-08-25T00:36:31.058Z,1016.76
2022-08-25T00:37:31.059Z,1016.77
2022-08-25T00:38:31.055Z,1016.82
2022-08-25T00:39:31.062Z,1016.78
2022-08-25T00:40:31.147Z,1016.81
2022-08-25T00:41:31.069Z,1016.81
2022-08-25T00:42:31.066Z,1016.79
2022-08-25T00:43:31.066Z,1016.82
2022-08-25T00:44:31.067Z,1016.80
2022-08-25T00:45:31.072Z,1016.84
2022-08-25T00:46:31.157Z,1016.82
2022-08-25T00:47:31.076Z,1016.77
2022-08-25T00:48:31.077Z,1016.81
2022-08-25T00:49:31.082Z,1016.82
2022-08-25T00:50:31.082Z,1016.78
2022-08-25T00:51:31.085Z,1016.80
2022-08-25T00:52:31.089Z,1016.74
2022-08-25T00:53:31.091Z,1016.74
2022-08-25T00:54:31.097Z,1016.75
2022-08-25T00:55:31.097Z,1016.73
2022-08-25T00:56:31.098Z,1016.77
2022-08-25T00:57:34.146Z,1016.82
2022-08-25T00:58:31.102Z,1016.82
2022-08-25T00:59:31.105Z,1016.80
2022-08-25T01:00:31.103Z,1016.82
2022-08-25T01:01:31.211Z,1016.82
2022-08-25T01:02:31.153Z,1016.79
2022-08-25T01:03:33.070Z,1016.81
2022-08-25T01:04:31.114Z,1016.80
2022-08-25T01:05:31.112Z,1016.83
2022-08-25T01:06:31.120Z,1016.83
2022-08-25T01:07:31.117Z,1016.88
2022-08-25T01:08:32.126Z,1016.83
2022-08-25T01:09:31.122Z,1016.83
2022-08-25T01:10:31.122Z,1016.83
2022-08-25T01:11:31.129Z,1016.81
2022-08-25T01:12:31.127Z,1016.80
2022-08-25T01:13:31.134Z,1016.81
2022-08-25T01:14:31.137Z,1016.78
2022-08-25T01:15:31.206Z,1016.77
2022-08-25T01:16:31.145Z,1016.79
2022-08-25T01:17:31.140Z,1016.79
2022-08-25T01:18:31.141Z,1016.81
2022-08-25T01:19:31.148Z,1016.83
2022-08-25T01:20:31.144Z,1016.80
2022-08-25T01:21:31.151Z,1016.81
2022-08-25T01:22:31.155Z,1016.81
2022-08-25T01:23:31.150Z,1016.77
2022-08-25T01:24:31.153Z,1016.78
2022-08-25T01:25:31.155Z,1016.80
2022-08-25T01:26:31.190Z,1016.81
2022-08-25T01:27:31.161Z,1016.76
2022-08-25T01:28:31.159Z,1016.81
2022-08-25T01:29:31.161Z,1016.82
2022-08-25T01:30:31.326Z,1016.79
2022-08-25T01:31:31.193Z,1016.77
2022-08-25T01:32:31.172Z,1016.81
2022-08-25T01:33:31.177Z,1016.77
2022-08-25T01:34:31.176Z,1016.75
2022-08-25T01:35:31.179Z,1016.74
2022-08-25T01:36:31.181Z,1016.74
2022-08-25T01:37:31.181Z,1016.73
2022-08-25T01:38:31.184Z,1016.74
2022-08-25T01:39:31.182Z,1016.77
2022-08-25T01:40:31.275Z,1016.76
2022-08-25T01:41:31.189Z,1016.74
2022-08-25T01:42:31.195Z,1016.74
2022-08-25T01:43:31.193Z,1016.73
2022-08-25T01:44:31.197Z,1016.75
2022-08-25T01:45:31.195Z,1016.72
2022-08-25T01:46:31.238Z,1016.75
2022-08-25T01:47:31.203Z,1016.70
2022-08-25T01:48:31.202Z,1016.69
2022-08-25T01:49:31.201Z,1016.68
2022-08-25T01:50:31.206Z,1016.69
2022-08-25T01:51:31.205Z,1016.65
2022-08-25T01:52:31.210Z,1016.69
2022-08-25T01:53:33.330Z,1016.68
2022-08-25T01:54:31.215Z,1016.66
2022-08-25T01:55:31.215Z,1016.67
2022-08-25T01:56:31.221Z,1016.66
2022-08-25T01:57:31.218Z,1016.68
2022-08-25T01:58:31.223Z,1016.68
2022-08-25T01:59:31.228Z,1016.71
2022-08-25T02:00:31.228Z,1016.70
2022-08-25T02:01:31.307Z,1016.67
2022-08-25T02:02:31.617Z,1016.67
2022-08-25T02:03:31.230Z,1016.70
2022-08-25T02:04:31.237Z,1016.65
2022-08-25T02:05:31.234Z,1016.66
2022-08-25T02:06:31.239Z,1016.63
2022-08-25T02:07:31.349Z,1016.67
2022-08-25T02:08:31.241Z,1016.67
2022-08-25T02:09:31.246Z,1016.66
2022-08-25T02:10:31.247Z,1016.68
2022-08-25T02:11:31.249Z,1016.69
2022-08-25T02:12:31.280Z,1016.67
2022-08-25T02:13:31.586Z,1016.68
2022-08-25T02:14:31.255Z,1016.67
2022-08-25T02:15:31.257Z,1016.65
2022-08-25T02:16:31.319Z,1016.67
2022-08-25T02:17:31.267Z,1016.66
2022-08-25T02:18:31.262Z,1016.63
2022-08-25T02:19:31.266Z,1016.66
2022-08-25T02:20:31.265Z,1016.62
2022-08-25T02:21:31.269Z,1016.61
2022-08-25T02:22:31.273Z,1016.60
2022-08-25T02:23:31.270Z,1016.56
2022-08-25T02:24:31.273Z,1016.55
2022-08-25T02:25:31.276Z,1016.56
2022-08-25T02:26:31.280Z,1016.53
2022-08-25T02:27:31.283Z,1016.52
2022-08-25T02:28:31.284Z,1016.49
2022-08-25T02:29:31.284Z,1016.51
2022-08-25T02:30:31.311Z,1016.52
2022-08-25T02:31:31.285Z,1016.50
2022-08-25T02:32:31.292Z,1016.50
2022-08-25T02:33:31.300Z,1016.49
2022-08-25T02:34:31.294Z,1016.48
2022-08-25T02:35:31.294Z,1016.49
2022-08-25T02:36:31.298Z,1016.46
2022-08-25T02:37:31.299Z,1016.47
2022-08-25T02:38:31.307Z,1016.49
2022-08-25T02:39:31.303Z,1016.49
2022-08-25T02:40:31.346Z,1016.45
2022-08-25T02:41:31.806Z,1016.41
2022-08-25T02:42:31.306Z,1016.40
2022-08-25T02:43:31.309Z,1016.42
2022-08-25T02:44:31.314Z,1016.41
2022-08-25T02:45:31.463Z,1016.34
2022-08-25T02:46:31.318Z,1016.36
2022-08-25T02:47:31.315Z,1016.36
2022-08-25T02:48:31.320Z,1016.39
2022-08-25T02:49:31.316Z,1016.35
2022-08-25T02:50:31.324Z,1016.39
2022-08-25T02:51:31.327Z,1016.38
2022-08-25T02:52:31.328Z,1016.35
2022-08-25T02:53:31.333Z,1016.36
2022-08-25T02:54:31.332Z,1016.36
2022-08-25T02:55:31.657Z,1016.36
2022-08-25T02:56:31.332Z,1016.38
2022-08-25T02:57:31.337Z,1016.39
2022-08-25T02:58:31.342Z,1016.40
2022-08-25T02:59:31.340Z,1016.38
2022-08-25T03:00:31.347Z,1016.38
2022-08-25T03:01:31.440Z,1016.38
2022-08-25T03:02:31.345Z,1016.36
2022-08-25T03:03:31.346Z,1016.32
2022-08-25T03:04:31.410Z,1016.34
2022-08-25T03:05:31.355Z,1016.32
2022-08-25T03:06:31.359Z,1016.33
2022-08-25T03:07:31.360Z,1016.33
2022-08-25T03:08:31.358Z,1016.34
2022-08-25T03:09:31.357Z,1016.28
2022-08-25T03:10:31.365Z,1016.28
2022-08-25T03:11:31.368Z,1016.28
2022-08-25T03:12:31.366Z,1016.28
2022-08-25T03:13:31.370Z,1016.33
2022-08-25T03:14:31.367Z,1016.24
2022-08-25T03:15:31.374Z,1016.26
2022-08-25T03:16:31.410Z,1016.22
2022-08-25T03:17:31.380Z,1016.25
2022-08-25T03:18:31.372Z,1016.25
2022-08-25T03:19:31.383Z,1016.26
2022-08-25T03:20:31.381Z,1016.24
2022-08-25T03:21:31.382Z,1016.28
2022-08-25T03:22:31.385Z,1016.25
2022-08-25T03:23:31.386Z,1016.23
2022-08-25T03:24:31.385Z,1016.25
2022-08-25T03:25:31.388Z,1016.26
2022-08-25T03:26:31.390Z,1016.22
2022-08-25T03:27:31.392Z,1016.19
2022-08-25T03:28:31.401Z,1016.22
2022-08-25T03:29:31.397Z,1016.16
2022-08-25T03:30:31.412Z,1016.17
2022-08-25T03:31:31.586Z,1016.17
2022-08-25T03:32:31.407Z,1016.14
2022-08-25T03:33:31.409Z,1016.12
2022-08-25T03:34:31.411Z,1016.16
2022-08-25T03:35:31.415Z,1016.11
2022-08-25T03:36:31.418Z,1016.06
2022-08-25T03:37:31.416Z,1016.07
2022-08-25T03:38:31.422Z,1016.07
2022-08-25T03:39:31.423Z,1016.06
2022-08-25T03:40:31.476Z,1016.05
2022-08-25T03:41:31.428Z,1016.08
2022-08-25T03:42:31.429Z,1016.08
2022-08-25T03:43:31.428Z,1016.08
2022-08-25T03:44:31.434Z,1016.11
2022-08-25T03:45:31.475Z,1016.10
2022-08-25T03:46:31.434Z,1016.10
2022-08-25T03:47:31.436Z,1016.12
2022-08-25T03:48:31.441Z,1016.10
2022-08-25T03:49:31.445Z,1016.11
2022-08-25T03:50:31.445Z,1016.17
2022-08-25T03:51:31.447Z,1016.17
2022-08-25T03:52:31.445Z,1016.19
2022-08-25T03:53:31.446Z,1016.18
2022-08-25T03:54:31.452Z,1016.18
2022-08-25T03:55:31.450Z,1016.21
2022-08-25T03:56:31.449Z,1016.20
2022-08-25T03:57:31.442Z,1016.22
2022-08-25T03:58:31.448Z,1016.20
2022-08-25T03:59:31.452Z,1016.18
2022-08-25T04:00:31.451Z,1016.19
2022-08-25T04:01:31.520Z,1016.20
2022-08-25T04:02:31.536Z,1016.21
2022-08-25T04:03:31.457Z,1016.25
2022-08-25T04:04:31.457Z,1016.21
2022-08-25T04:05:31.465Z,1016.22
2022-08-25T04:06:31.462Z,1016.21
2022-08-25T04:07:31.463Z,1016.26
2022-08-25T04:08:31.471Z,1016.23
2022-08-25T04:09:34.135Z,1016.26
2022-08-25T04:10:31.470Z,1016.27
2022-08-25T04:11:31.472Z,1016.24
2022-08-25T04:12:31.470Z,1016.33
2022-08-25T04:13:31.473Z,1016.32
2022-08-25T04:14:31.479Z,1016.31
2022-08-25T04:15:31.476Z,1016.34
2022-08-25T04:16:31.652Z,1016.31
2022-08-25T04:17:31.481Z,1016.29
2022-08-25T04:18:31.488Z,1016.34
2022-08-25T04:19:31.480Z,1016.31
2022-08-25T04:20:31.489Z,1016.31
2022-08-25T04:21:31.490Z,1016.30
2022-08-25T04:22:31.493Z,1016.32
2022-08-25T04:23:31.491Z,1016.30
2022-08-25T04:24:31.494Z,1016.31
2022-08-25T04:25:31.497Z,1016.35
2022-08-25T04:26:31.501Z,1016.34
2022-08-25T04:27:31.501Z,1016.35
2022-08-25T04:28:31.503Z,1016.37
2022-08-25T04:29:31.500Z,1016.39
2022-08-25T04:30:31.507Z,1016.36
2022-08-25T04:31:31.574Z,1016.33
2022-08-25T04:32:31.506Z,1016.37
2022-08-25T04:33:31.515Z,1016.32
2022-08-25T04:34:31.663Z,1016.28
2022-08-25T04:35:31.514Z,1016.29
2022-08-25T04:36:31.515Z,1016.28
2022-08-25T04:37:31.517Z,1016.27
2022-08-25T04:38:31.520Z,1016.27
2022-08-25T04:39:31.518Z,1016.29
2022-08-25T04:40:31.572Z,1016.29
2022-08-25T04:41:31.533Z,1016.31
2022-08-25T04:42:31.529Z,1016.26
2022-08-25T04:43:31.525Z,1016.27
2022-08-25T04:44:31.530Z,1016.31
2022-08-25T04:45:31.584Z,1016.33
2022-08-25T04:46:31.534Z,1016.32
2022-08-25T04:47:31.534Z,1016.33
2022-08-25T04:48:31.542Z,1016.30
2022-08-25T04:49:31.537Z,1016.32
2022-08-25T04:50:31.538Z,1016.37
2022-08-25T04:51:31.546Z,1016.37
2022-08-25T04:52:31.545Z,1016.38
2022-08-25T04:53:31.547Z,1016.42
2022-08-25T04:54:37.317Z,1016.40
2022-08-25T04:55:31.551Z,1016.44
2022-08-25T04:56:31.551Z,1016.40
2022-08-25T04:57:31.552Z,1016.43
2022-08-25T04:58:31.559Z,1016.45
2022-08-25T04:59:31.558Z,1016.45
2022-08-25T05:00:31.562Z,1016.43
2022-08-25T05:01:31.562Z,1016.46
2022-08-25T05:02:31.562Z,1016.45
2022-08-25T05:03:31.570Z,1016.47
2022-08-25T05:04:31.616Z,1016.45
2022-08-25T05:05:31.567Z,1016.51
2022-08-25T05:06:31.569Z,1016.52
2022-08-25T05:07:31.574Z,1016.55
2022-08-25T05:08:31.569Z,1016.56
2022-08-25T05:09:32.485Z,1016.55
2022-08-25T05:10:31.575Z,1016.56
2022-08-25T05:11:31.586Z,1016.56
2022-08-25T05:12:31.584Z,1016.56
2022-08-25T05:13:31.584Z,1016.57
2022-08-25T05:14:31.599Z,1016.59
2022-08-25T05:15:31.590Z,1016.60
2022-08-25T05:16:31.655Z,1016.58
2022-08-25T05:17:31.585Z,1016.61
2022-08-25T05:18:31.594Z,1016.66
2022-08-25T05:19:31.592Z,1016.66
2022-08-25T05:20:31.600Z,1016.67
2022-08-25T05:21:31.597Z,1016.66
2022-08-25T05:22:31.603Z,1016.71
2022-08-25T05:23:31.601Z,1016.69
2022-08-25T05:24:31.608Z,1016.72
2022-08-25T05:25:31.604Z,1016.77
2022-08-25T05:26:31.606Z,1016.75
2022-08-25T05:27:31.611Z,1016.76
2022-08-25T05:28:31.614Z,1016.74
2022-08-25T05:29:31.614Z,1016.77
2022-08-25T05:30:31.615Z,1016.79
2022-08-25T05:31:31.681Z,1016.76
2022-08-25T05:32:31.622Z,1016.79
2022-08-25T05:33:32.974Z,1016.78
2022-08-25T05:34:31.626Z,1016.76
2022-08-25T05:35:31.627Z,1016.78
2022-08-25T05:36:31.632Z,1016.77
2022-08-25T05:37:31.633Z,1016.79
2022-08-25T05:38:31.632Z,1016.75
2022-08-25T05:39:31.631Z,1016.75
2022-08-25T05:40:31.701Z,1016.77
2022-08-25T05:41:31.640Z,1016.75
2022-08-25T05:42:31.643Z,1016.78
2022-08-25T05:43:31.645Z,1016.77
2022-08-25T05:44:31.643Z,1016.70
2022-08-25T05:45:31.685Z,1016.71
2022-08-25T05:46:32.016Z,1016.71
2022-08-25T05:47:31.651Z,1016.72
2022-08-25T05:48:31.651Z,1016.70
2022-08-25T05:49:31.656Z,1016.70
2022-08-25T05:50:31.658Z,1016.74
2022-08-25T05:51:31.659Z,1016.75
2022-08-25T05:52:31.663Z,1016.76
2022-08-25T05:53:34.144Z,1016.79
2022-08-25T05:54:31.667Z,1016.72
2022-08-25T05:55:31.665Z,1016.72
2022-08-25T05:56:31.667Z,1016.72
2022-08-25T05:57:31.670Z,1016.78
2022-08-25T05:58:31.670Z,1016.73
2022-08-25T05:59:31.678Z,1016.77
2022-08-25T06:00:31.675Z,1016.75
2022-08-25T06:01:31.788Z,1016.79
2022-08-25T06:02:31.679Z,1016.78
2022-08-25T06:03:31.741Z,1016.78
2022-08-25T06:04:31.684Z,1016.79
2022-08-25T06:05:31.690Z,1016.77
2022-08-25T06:06:31.692Z,1016.78
2022-08-25T06:07:31.693Z,1016.75
2022-08-25T06:08:31.693Z,1016.78
2022-08-25T06:09:31.697Z,1016.78
2022-08-25T06:10:31.700Z,1016.75
2022-08-25T06:11:31.699Z,1016.74
2022-08-25T06:12:31.702Z,1016.77
2022-08-25T06:13:31.705Z,1016.76
2022-08-25T06:14:31.705Z,1016.75
2022-08-25T06:15:31.710Z,1016.73
2022-08-25T06:16:31.824Z,1016.70
2022-08-25T06:17:31.714Z,1016.70
2022-08-25T06:18:31.717Z,1016.74
2022-08-25T06:19:31.716Z,1016.70
2022-08-25T06:20:31.721Z,1016.70
2022-08-25T06:21:31.721Z,1016.73
2022-08-25T06:22:31.723Z,1016.68
2022-08-25T06:23:31.732Z,1016.69
2022-08-25T06:24:31.728Z,1016.66
2022-08-25T06:25:31.732Z,1016.63
2022-08-25T06:26:31.730Z,1016.62
2022-08-25T06:27:31.740Z,1016.59
2022-08-25T06:28:31.739Z,1016.58
2022-08-25T06:29:31.740Z,1016.57
2022-08-25T06:30:31.743Z,1016.60
2022-08-25T06:31:31.811Z,1016.60
2022-08-25T06:32:31.748Z,1016.65
2022-08-25T06:33:31.749Z,1016.67
2022-08-25T06:34:31.751Z,1016.64
2022-08-25T06:35:31.756Z,1016.65
2022-08-25T06:36:31.755Z,1016.63
2022-08-25T06:37:31.758Z,1016.63
2022-08-25T06:38:31.760Z,1016.66
2022-08-25T06:39:31.782Z,1016.64
2022-08-25T06:40:31.813Z,1016.68
2022-08-25T06:41:36.891Z,1016.65
2022-08-25T06:42:31.773Z,1016.62
2022-08-25T06:43:31.773Z,1016.63
2022-08-25T06:44:31.782Z,1016.69
2022-08-25T06:45:31.776Z,1016.67
2022-08-25T06:46:36.244Z,1016.69
2022-08-25T06:47:31.788Z,1016.72
2022-08-25T06:48:31.781Z,1016.71
2022-08-25T06:49:34.271Z,1016.71
2022-08-25T06:50:31.792Z,1016.76
2022-08-25T06:51:31.803Z,1016.69
2022-08-25T06:52:31.803Z,1016.70
2022-08-25T06:53:31.797Z,1016.73
2022-08-25T06:54:31.801Z,1016.72
2022-08-25T06:55:31.802Z,1016.74
2022-08-25T06:56:31.905Z,1016.76
2022-08-25T06:57:31.808Z,1016.78
2022-08-25T06:58:31.808Z,1016.79
2022-08-25T06:59:32.147Z,1016.76
2022-08-25T07:00:32.017Z,1016.80
2022-08-25T07:01:32.157Z,1016.80
2022-08-25T07:02:31.859Z,1016.80
2022-08-25T07:03:31.822Z,1016.81
2022-08-25T07:04:31.829Z,1016.83
2022-08-25T07:05:43.417Z,1016.85
2022-08-25T07:06:31.831Z,1016.85
2022-08-25T07:07:42.993Z,1016.83
2022-08-25T07:08:31.836Z,1016.87
2022-08-25T07:09:33.631Z,1016.81
2022-08-25T07:10:31.844Z,1016.81
2022-08-25T07:11:31.841Z,1016.80
2022-08-25T07:12:31.849Z,1016.76
2022-08-25T07:13:31.850Z,1016.77
2022-08-25T07:14:31.851Z,1016.76
2022-08-25T07:15:31.859Z,1016.75
2022-08-25T07:16:31.916Z,1016.77
2022-08-25T07:17:31.863Z,1016.73
2022-08-25T07:18:31.866Z,1016.73
2022-08-25T07:19:31.867Z,1016.69
2022-08-25T07:20:31.870Z,1016.67
2022-08-25T07:21:33.663Z,1016.71
2022-08-25T07:22:31.871Z,1016.72
2022-08-25T07:23:31.876Z,1016.68
2022-08-25T07:24:31.882Z,1016.69
2022-08-25T07:25:31.881Z,1016.76
2022-08-25T07:26:37.608Z,1016.71
2022-08-25T07:27:31.889Z,1016.71
2022-08-25T07:28:31.892Z,1016.67
2022-08-25T07:29:33.271Z,1016.67
2022-08-25T07:30:31.895Z,1016.72
2022-08-25T07:31:31.983Z,1016.67
2022-08-25T07:32:31.900Z,1016.64
2022-08-25T07:33:31.914Z,1016.64
2022-08-25T07:34:31.907Z,1016.64
2022-08-25T07:35:37.395Z,1016.60
2022-08-25T07:36:31.916Z,1016.59
2022-08-25T07:37:47.906Z,1016.60
2022-08-25T07:38:31.920Z,1016.56
2022-08-25T07:39:31.931Z,1016.58
2022-08-25T07:40:32.044Z,1016.58
2022-08-25T07:41:31.930Z,1016.59
2022-08-25T07:42:31.935Z,1016.62
2022-08-25T07:43:31.936Z,1016.60
2022-08-25T07:44:31.941Z,1016.66
2022-08-25T07:45:31.946Z,1016.59
2022-08-25T07:46:32.017Z,1016.58
2022-08-25T07:47:31.960Z,1016.58
2022-08-25T07:48:31.950Z,1016.61
2022-08-25T07:49:35.821Z,1016.62
2022-08-25T07:50:31.956Z,1016.68
2022-08-25T07:51:31.963Z,1016.78
2022-08-25T07:52:31.965Z,1016.69
2022-08-25T07:53:31.973Z,1016.75
2022-08-25T07:54:33.809Z,1016.71
2022-08-25T07:55:31.978Z,1016.69
2022-08-25T07:56:31.976Z,1016.68
2022-08-25T07:57:31.982Z,1016.68
2022-08-25T07:58:31.990Z,1016.65
2022-08-25T07:59:39.243Z,1016.66
2022-08-25T08:00:31.991Z,1016.71
2022-08-25T08:01:32.067Z,1016.71
2022-08-25T08:02:32.036Z,1016.68
2022-08-25T08:03:45.092Z,1016.63
2022-08-25T08:04:32.005Z,1016.64
2022-08-25T08:05:32.011Z,1016.66
2022-08-25T08:06:32.013Z,1016.67
2022-08-25T08:07:43.272Z,1016.67
2022-08-25T08:08:32.580Z,1016.69
2022-08-25T08:09:32.018Z,1016.72
2022-08-25T08:11:32.034Z,1016.80
2022-08-25T08:12:32.034Z,1016.86
2022-08-25T08:13:32.037Z,1016.98
2022-08-25T08:14:32.038Z,1017.13
2022-08-25T08:15:32.043Z,1017.30
2022-08-25T08:16:32.081Z,1017.27
2022-08-25T08:17:32.055Z,1017.54
2022-08-25T08:18:32.055Z,1017.54
2022-08-25T08:19:32.059Z,1017.26
2022-08-25T08:20:32.069Z,1017.22
2022-08-25T08:21:32.069Z,1017.27
2022-08-25T08:22:32.071Z,1017.57
2022-08-25T08:23:32.074Z,1017.49
2022-08-25T08:24:44.726Z,1017.38
2022-08-25T08:25:32.084Z,1017.06
2022-08-25T08:26:55.346Z,1017.03
2022-08-25T08:27:32.103Z,1016.77
2022-08-25T08:28:32.114Z,1016.79
2022-08-25T08:29:32.106Z,1017.00
2022-08-25T08:30:32.112Z,1017.41
2022-08-25T08:31:32.179Z,1017.24
2022-08-25T08:32:53.008Z,1017.34
2022-08-25T08:33:32.124Z,1017.29
2022-08-25T08:34:32.135Z,1016.90
2022-08-25T08:35:32.143Z,1016.79
2022-08-25T08:36:32.141Z,1016.67
2022-08-25T08:37:32.145Z,1016.66
2022-08-25T08:38:32.157Z,1016.59
2022-08-25T08:39:32.164Z,1016.66
2022-08-25T08:40:32.233Z,1016.77
2022-08-25T08:41:40.123Z,1016.71
2022-08-25T08:42:32.180Z,1016.71
2022-08-25T08:43:33.435Z,1017.03
2022-08-25T08:44:32.188Z,1016.88
2022-08-25T08:45:32.197Z,1016.91
2022-08-25T08:46:32.218Z,1016.69
2022-08-25T08:47:32.216Z,1016.65
2022-08-25T08:48:32.216Z,1016.68
2022-08-25T08:49:32.228Z,1016.69
2022-08-25T08:50:33.038Z,1017.10
2022-08-25T08:51:32.684Z,1017.00
2022-08-25T08:52:32.239Z,1017.22
2022-08-25T08:53:33.993Z,1017.61
2022-08-25T08:54:34.026Z,1017.12
2022-08-25T08:55:32.269Z,1017.21
2022-08-25T08:56:32.271Z,1016.95
2022-08-25T08:57:32.281Z,1017.58
2022-08-25T08:58:32.281Z,1016.84
2022-08-25T08:59:32.291Z,1016.92
2022-08-25T09:00:32.300Z,1016.74
2022-08-25T09:01:32.377Z,1016.63
2022-08-25T09:02:39.396Z,1016.72
2022-08-25T09:03:32.413Z,1017.16
2022-08-25T09:04:32.328Z,1017.68
2022-08-25T09:05:34.434Z,1017.12
2022-08-25T09:06:32.346Z,1016.97
2022-08-25T09:07:32.353Z,1017.07
2022-08-25T09:08:32.366Z,1017.10
2022-08-25T09:09:35.968Z,1016.64
2022-08-25T09:10:32.379Z,1016.63
2022-08-25T09:11:32.388Z,1016.58
2022-08-25T09:12:32.395Z,1016.61
2022-08-25T09:13:32.411Z,1016.71
2022-08-25T09:14:32.410Z,1016.76
2022-08-25T09:15:32.444Z,1016.78
2022-08-25T09:16:34.458Z,1016.65
2022-08-25T09:17:32.438Z,1016.74
2022-08-25T09:18:32.444Z,1016.80
2022-08-25T09:19:32.457Z,1016.72
2022-08-25T09:20:32.462Z,1016.72
2022-08-25T09:21:32.476Z,1016.69
2022-08-25T09:22:33.839Z,1016.67
2022-08-25T09:23:32.493Z,1016.80
2022-08-25T09:24:32.499Z,1017.47
2022-08-25T09:25:52.438Z,1017.55
2022-08-25T09:26:32.520Z,1016.93
2022-08-25T09:27:32.529Z,1017.08
2022-08-25T09:28:32.537Z,1017.55
2022-08-25T09:29:32.546Z,1016.97
2022-08-25T09:30:32.558Z,1017.60
2022-08-25T09:31:32.621Z,1017.49
2022-08-25T09:32:32.578Z,1017.61
2022-08-25T09:33:35.449Z,1016.77
2022-08-25T09:34:32.601Z,1016.81
2022-08-25T09:35:32.613Z,1017.10
2022-08-25T09:36:37.243Z,1016.70
2022-08-25T09:37:32.633Z,1017.43
2022-08-25T09:38:32.646Z,1016.95
2022-08-25T09:39:32.662Z,1017.68
2022-08-25T09:40:32.766Z,1016.86
2022-08-25T09:41:32.682Z,1017.59
2022-08-25T09:42:32.692Z,1017.66
2022-08-25T09:43:32.710Z,1016.87
2022-08-25T09:44:32.914Z,1017.59
2022-08-25T09:45:32.739Z,1017.01
2022-08-25T09:46:32.781Z,1016.96
2022-08-25T09:47:32.865Z,1017.66
2022-08-25T09:48:36.566Z,1017.04
2022-08-25T09:49:32.791Z,1016.63
2022-08-25T09:50:34.991Z,1016.59
2022-08-25T09:51:42.479Z,1017.60
2022-08-25T09:52:32.832Z,1017.54
2022-08-25T09:53:33.827Z,1017.62
2022-08-25T09:54:44.126Z,1017.63
2022-08-25T09:55:32.884Z,1017.72
2022-08-25T09:56:32.898Z,1017.68
2022-08-25T09:57:32.911Z,1017.79
2022-08-25T09:58:32.926Z,1017.55
2022-08-25T09:59:35.147Z,1016.66
2022-08-25T10:00:32.962Z,1016.51
2022-08-25T10:01:34.750Z,1016.48
2022-08-25T10:02:32.998Z,1016.52
2022-08-25T10:03:36.804Z,1016.60
2022-08-25T10:04:33.027Z,1016.57
2022-08-25T10:05:33.086Z,1016.63
2022-08-25T10:06:33.068Z,1017.41
2022-08-25T10:07:33.082Z,1016.66
2022-08-25T10:08:33.102Z,1016.58
2022-08-25T10:09:33.118Z,1016.76
2022-08-25T10:10:33.132Z,1016.48
2022-08-25T10:11:33.152Z,1016.47
2022-08-25T10:12:33.168Z,1016.50
2022-08-25T10:13:33.193Z,1016.65
2022-08-25T10:14:33.204Z,1017.77
2022-08-25T10:15:33.325Z,1016.84
2022-08-25T10:16:36.510Z,1017.52
2022-08-25T10:17:33.456Z,1017.87
2022-08-25T10:18:33.273Z,1017.79
2022-08-25T10:19:33.289Z,1016.36
2022-08-25T10:20:35.313Z,1017.18
2022-08-25T10:21:33.319Z,1016.43
2022-08-25T10:22:33.340Z,1016.44
2022-08-25T10:23:33.356Z,1017.98
2022-08-25T10:24:33.371Z,1016.76
2022-08-25T10:25:33.389Z,1017.01
2022-08-25T10:26:35.103Z,1016.53
2022-08-25T10:27:33.437Z,1016.34
2022-08-25T10:28:33.441Z,1016.31
2022-08-25T10:29:33.456Z,1016.31
2022-08-25T10:30:33.531Z,1018.14
2022-08-25T10:31:34.778Z,1016.46
2022-08-25T10:32:33.521Z,1016.44
2022-08-25T10:33:33.526Z,1016.56
2022-08-25T10:34:35.642Z,1016.75
2022-08-25T10:35:33.563Z,1016.50
2022-08-25T10:36:33.579Z,1016.34
2022-08-25T10:37:33.597Z,1017.83
2022-08-25T10:38:36.187Z,1017.91
2022-08-25T10:39:36.409Z,1016.59
2022-08-25T10:40:33.729Z,1017.87
2022-08-25T10:41:33.668Z,1017.45
2022-08-25T10:42:33.681Z,1017.72
2022-08-25T10:43:33.700Z,1016.24
2022-08-25T10:44:33.718Z,1016.23
2022-08-25T10:45:33.726Z,1016.27
2022-08-25T10:46:33.796Z,1016.27
2022-08-25T10:47:34.248Z,1016.34
2022-08-25T10:48:33.779Z,1016.68
2022-08-25T10:49:33.797Z,1016.71
2022-08-25T10:50:33.816Z,1016.28
2022-08-25T10:51:33.830Z,1017.07
2022-08-25T10:52:33.853Z,1016.79
2022-08-25T10:53:33.864Z,1017.55
2022-08-25T10:54:33.881Z,1017.64
2022-08-25T10:55:33.899Z,1017.53
2022-08-25T10:56:33.914Z,1016.07
2022-08-25T10:57:34.243Z,1015.95
2022-08-25T10:58:33.951Z,1016.75
2022-08-25T10:59:33.964Z,1015.88
2022-08-25T11:00:33.988Z,1015.90
2022-08-25T11:01:42.952Z,1015.86
2022-08-25T11:02:34.023Z,1016.07
2022-08-25T11:03:35.182Z,1015.85
2022-08-25T11:04:34.059Z,1016.13
2022-08-25T11:05:34.132Z,1015.80
2022-08-25T11:06:34.086Z,1015.75
2022-08-25T11:07:34.110Z,1015.92
2022-08-25T11:08:34.119Z,1016.65
2022-08-25T11:09:35.990Z,1016.82
2022-08-25T11:10:34.155Z,1016.99
2022-08-25T11:11:35.035Z,1016.14
2022-08-25T11:12:34.186Z,1015.78
2022-08-25T11:13:34.203Z,1015.79
2022-08-25T11:14:34.743Z,1016.06
2022-08-25T11:15:34.239Z,1015.85
2022-08-25T11:16:34.312Z,1015.85
2022-08-25T11:17:34.268Z,1015.87
2022-08-25T11:18:34.287Z,1015.82
2022-08-25T11:19:34.306Z,1015.68
2022-08-25T11:20:34.320Z,1016.53
2022-08-25T11:21:34.935Z,1015.63
2022-08-25T11:22:34.358Z,1015.65
2022-08-25T11:23:34.372Z,1016.53
2022-08-25T11:24:36.089Z,1015.59
2022-08-25T11:25:34.411Z,1015.55
2022-08-25T11:26:36.972Z,1015.59
2022-08-25T11:27:34.444Z,1015.57
2022-08-25T11:28:34.469Z,1015.54
2022-08-25T11:29:34.474Z,1015.56
2022-08-25T11:30:34.554Z,1015.55
2022-08-25T11:31:34.509Z,1015.55
2022-08-25T11:32:34.522Z,1015.56
2022-08-25T11:33:34.543Z,1015.56
2022-08-25T11:34:34.559Z,1016.16
2022-08-25T11:35:34.571Z,1015.55
2022-08-25T11:36:34.589Z,1015.54
2022-08-25T11:37:34.603Z,1016.24
2022-08-25T11:38:34.618Z,1016.21
2022-08-25T11:39:34.836Z,1016.15
2022-08-25T11:40:34.660Z,1016.13
2022-08-25T11:41:34.671Z,1016.15
2022-08-25T11:42:34.694Z,1016.09
2022-08-25T11:43:35.659Z,1016.13
2022-08-25T11:44:34.721Z,1016.18
2022-08-25T11:45:34.736Z,1016.20
2022-08-25T11:46:34.860Z,1015.52
2022-08-25T11:47:34.771Z,1015.46
2022-08-25T11:48:34.788Z,1015.87
2022-08-25T11:49:34.804Z,1015.97
2022-08-25T11:50:35.146Z,1015.71
2022-08-25T11:51:36.360Z,1015.84
2022-08-25T11:52:35.138Z,1015.90
2022-08-25T11:53:34.874Z,1015.91
2022-08-25T11:54:34.894Z,1015.88
2022-08-25T11:55:34.909Z,1015.71
2022-08-25T11:56:34.931Z,1015.73
2022-08-25T11:57:34.945Z,1015.61
2022-08-25T11:58:34.972Z,1015.62
2022-08-25T11:59:34.981Z,1015.72
2022-08-25T12:00:35.016Z,1015.49
2022-08-25T12:01:35.026Z,1015.60
2022-08-25T12:02:35.041Z,1015.54
2022-08-25T12:03:35.060Z,1015.48
2022-08-25T12:04:43.945Z,1015.45
2022-08-25T12:05:35.153Z,1015.48
2022-08-25T12:06:35.112Z,1015.49